sensor_id;sensor_type;location;lat;lon;timestamp;P1;durP1;ratioP1;P2;durP2;ratioP2
14472;SDS011;7322;50.872;4.386;2023-07-28T00:01:41;2.90;;;1.88;;
14472;SDS011;7322;50.872;4.386;2023-07-28T00:04:08;2.50;;;1.70;;
14472;SDS011;7322;50.872;4.386;2023-07-28T00:06:35;2.33;;;1.80;;
14472;SDS011;7322;50.872;4.386;2023-07-28T00:09:02;3.20;;;1.90;;
14472;SDS011;7322;50.872;4.386;2023-07-28T00:11:31;3.20;;;1.83;;
14472;SDS011;7322;50.872;4.386;2023-07-28T00:13:58;2.67;;;1.85;;
14472;SDS011;7322;50.872;4.386;2023-07-28T00:16:26;2.35;;;1.90;;
14472;SDS011;7322;50.872;4.386;2023-07-28T00:18:54;1.90;;;1.58;;
14472;SDS011;7322;50.872;4.386;2023-07-28T00:21:33;2.70;;;1.90;;
14472;SDS011;7322;50.872;4.386;2023-07-28T00:24:01;3.03;;;2.00;;
14472;SDS011;7322;50.872;4.386;2023-07-28T00:26:37;2.42;;;2.00;;
14472;SDS011;7322;50.872;4.386;2023-07-28T00:29:05;2.80;;;1.70;;
14472;SDS011;7322;50.872;4.386;2023-07-28T00:31:36;2.80;;;1.85;;
14472;SDS011;7322;50.872;4.386;2023-07-28T00:34:03;2.72;;;1.95;;
14472;SDS011;7322;50.872;4.386;2023-07-28T00:36:30;1.90;;;1.73;;
14472;SDS011;7322;50.872;4.386;2023-07-28T00:38:57;2.33;;;1.67;;
14472;SDS011;7322;50.872;4.386;2023-07-28T00:41:25;3.30;;;2.00;;
14472;SDS011;7322;50.872;4.386;2023-07-28T00:43:52;2.55;;;1.67;;
14472;SDS011;7322;50.872;4.386;2023-07-28T00:46:19;2.45;;;2.10;;
14472;SDS011;7322;50.872;4.386;2023-07-28T00:52:18;2.38;;;2.17;;
14472;SDS011;7322;50.872;4.386;2023-07-28T01:02:44;2.22;;;1.98;;
14472;SDS011;7322;50.872;4.386;2023-07-28T01:07:47;2.35;;;2.13;;
14472;SDS011;7322;50.872;4.386;2023-07-28T01:10:26;3.28;;;2.50;;
14472;SDS011;7322;50.872;4.386;2023-07-28T01:12:56;2.83;;;2.00;;
14472;SDS011;7322;50.872;4.386;2023-07-28T01:15:23;3.58;;;2.33;;
14472;SDS011;7322;50.872;4.386;2023-07-28T01:17:51;3.40;;;2.65;;
14472;SDS011;7322;50.872;4.386;2023-07-28T01:20:18;3.05;;;2.53;;
14472;SDS011;7322;50.872;4.386;2023-07-28T01:22:56;3.17;;;2.35;;
14472;SDS011;7322;50.872;4.386;2023-07-28T01:25:36;2.88;;;2.58;;
14472;SDS011;7322;50.872;4.386;2023-07-28T01:28:15;3.22;;;2.50;;
14472;SDS011;7322;50.872;4.386;2023-07-28T01:30:43;2.75;;;2.25;;
14472;SDS011;7322;50.872;4.386;2023-07-28T01:33:10;2.30;;;2.10;;
14472;SDS011;7322;50.872;4.386;2023-07-28T01:35:40;3.88;;;2.60;;
14472;SDS011;7322;50.872;4.386;2023-07-28T01:38:07;3.40;;;2.35;;
14472;SDS011;7322;50.872;4.386;2023-07-28T01:40:34;3.72;;;2.30;;
14472;SDS011;7322;50.872;4.386;2023-07-28T01:43:01;2.58;;;2.10;;
14472;SDS011;7322;50.872;4.386;2023-07-28T01:45:30;2.38;;;2.10;;
14472;SDS011;7322;50.872;4.386;2023-07-28T01:47:57;3.47;;;2.35;;
14472;SDS011;7322;50.872;4.386;2023-07-28T01:50:24;3.00;;;2.08;;
14472;SDS011;7322;50.872;4.386;2023-07-28T01:52:51;2.92;;;2.40;;
14472;SDS011;7322;50.872;4.386;2023-07-28T01:55:18;2.55;;;2.28;;
14472;SDS011;7322;50.872;4.386;2023-07-28T01:57:50;3.63;;;2.45;;
14472;SDS011;7322;50.872;4.386;2023-07-28T02:00:21;2.85;;;2.55;;
14472;SDS011;7322;50.872;4.386;2023-07-28T02:02:50;3.28;;;2.53;;
14472;SDS011;7322;50.872;4.386;2023-07-28T02:05:17;3.03;;;2.53;;
14472;SDS011;7322;50.872;4.386;2023-07-28T02:07:45;4.75;;;2.22;;
14472;SDS011;7322;50.872;4.386;2023-07-28T02:10:12;3.40;;;2.58;;
14472;SDS011;7322;50.872;4.386;2023-07-28T02:12:39;2.83;;;2.55;;
14472;SDS011;7322;50.872;4.386;2023-07-28T02:15:07;3.03;;;2.40;;
14472;SDS011;7322;50.872;4.386;2023-07-28T02:17:34;2.65;;;2.35;;
14472;SDS011;7322;50.872;4.386;2023-07-28T02:20:03;3.30;;;1.92;;
14472;SDS011;7322;50.872;4.386;2023-07-28T02:22:31;3.00;;;2.47;;
14472;SDS011;7322;50.872;4.386;2023-07-28T02:24:58;2.58;;;2.03;;
14472;SDS011;7322;50.872;4.386;2023-07-28T02:27:27;3.95;;;2.25;;
14472;SDS011;7322;50.872;4.386;2023-07-28T02:29:54;3.28;;;2.72;;
14472;SDS011;7322;50.872;4.386;2023-07-28T02:32:21;3.35;;;2.70;;
14472;SDS011;7322;50.872;4.386;2023-07-28T02:34:48;3.88;;;2.60;;
14472;SDS011;7322;50.872;4.386;2023-07-28T02:37:17;3.47;;;2.30;;
14472;SDS011;7322;50.872;4.386;2023-07-28T02:39:44;3.38;;;2.42;;
14472;SDS011;7322;50.872;4.386;2023-07-28T02:42:11;2.55;;;2.28;;
14472;SDS011;7322;50.872;4.386;2023-07-28T02:44:39;2.42;;;2.13;;
14472;SDS011;7322;50.872;4.386;2023-07-28T02:47:06;3.35;;;2.63;;
14472;SDS011;7322;50.872;4.386;2023-07-28T02:49:33;4.05;;;2.70;;
14472;SDS011;7322;50.872;4.386;2023-07-28T02:52:01;4.43;;;2.70;;
14472;SDS011;7322;50.872;4.386;2023-07-28T02:54:30;3.38;;;2.92;;
14472;SDS011;7322;50.872;4.386;2023-07-28T02:56:57;3.38;;;2.63;;
14472;SDS011;7322;50.872;4.386;2023-07-28T02:59:26;3.92;;;3.30;;
14472;SDS011;7322;50.872;4.386;2023-07-28T03:01:53;3.33;;;2.90;;
14472;SDS011;7322;50.872;4.386;2023-07-28T03:04:21;3.55;;;2.88;;
14472;SDS011;7322;50.872;4.386;2023-07-28T03:06:48;3.25;;;2.45;;
14472;SDS011;7322;50.872;4.386;2023-07-28T03:09:15;4.90;;;3.03;;
14472;SDS011;7322;50.872;4.386;2023-07-28T03:11:43;3.83;;;2.97;;
14472;SDS011;7322;50.872;4.386;2023-07-28T03:14:11;3.33;;;2.83;;
14472;SDS011;7322;50.872;4.386;2023-07-28T03:16:38;4.38;;;2.95;;
14472;SDS011;7322;50.872;4.386;2023-07-28T03:19:06;3.10;;;2.80;;
14472;SDS011;7322;50.872;4.386;2023-07-28T03:21:33;4.07;;;2.40;;
14472;SDS011;7322;50.872;4.386;2023-07-28T03:24:00;3.85;;;2.90;;
14472;SDS011;7322;50.872;4.386;2023-07-28T03:26:27;3.90;;;2.58;;
14472;SDS011;7322;50.872;4.386;2023-07-28T03:28:56;3.83;;;2.88;;
14472;SDS011;7322;50.872;4.386;2023-07-28T03:31:23;3.97;;;2.58;;
14472;SDS011;7322;50.872;4.386;2023-07-28T03:33:50;4.72;;;2.42;;
14472;SDS011;7322;50.872;4.386;2023-07-28T03:36:17;2.60;;;2.40;;
14472;SDS011;7322;50.872;4.386;2023-07-28T03:38:44;4.40;;;2.25;;
14472;SDS011;7322;50.872;4.386;2023-07-28T03:41:12;2.67;;;2.30;;
14472;SDS011;7322;50.872;4.386;2023-07-28T03:43:39;3.00;;;2.55;;
14472;SDS011;7322;50.872;4.386;2023-07-28T03:46:09;2.78;;;2.10;;
14472;SDS011;7322;50.872;4.386;2023-07-28T03:48:36;3.03;;;2.20;;
14472;SDS011;7322;50.872;4.386;2023-07-28T03:51:03;3.78;;;2.40;;
14472;SDS011;7322;50.872;4.386;2023-07-28T03:53:30;2.97;;;2.10;;
14472;SDS011;7322;50.872;4.386;2023-07-28T03:56:00;2.80;;;2.17;;
14472;SDS011;7322;50.872;4.386;2023-07-28T03:58:27;2.80;;;2.08;;
14472;SDS011;7322;50.872;4.386;2023-07-28T04:00:54;2.13;;;1.90;;
14472;SDS011;7322;50.872;4.386;2023-07-28T04:03:23;3.47;;;1.83;;
14472;SDS011;7322;50.872;4.386;2023-07-28T04:05:50;3.75;;;2.83;;
14472;SDS011;7322;50.872;4.386;2023-07-28T04:08:17;3.42;;;2.08;;
14472;SDS011;7322;50.872;4.386;2023-07-28T04:10:44;4.13;;;2.10;;
14472;SDS011;7322;50.872;4.386;2023-07-28T04:13:11;2.40;;;2.00;;
14472;SDS011;7322;50.872;4.386;2023-07-28T04:15:38;3.38;;;1.98;;
14472;SDS011;7322;50.872;4.386;2023-07-28T04:18:05;2.88;;;2.25;;
14472;SDS011;7322;50.872;4.386;2023-07-28T04:20:34;3.33;;;2.10;;
14472;SDS011;7322;50.872;4.386;2023-07-28T04:23:01;2.67;;;2.03;;
14472;SDS011;7322;50.872;4.386;2023-07-28T04:25:28;4.93;;;2.10;;
14472;SDS011;7322;50.872;4.386;2023-07-28T04:27:55;2.42;;;2.08;;
14472;SDS011;7322;50.872;4.386;2023-07-28T04:30:22;2.50;;;2.20;;
14472;SDS011;7322;50.872;4.386;2023-07-28T04:32:49;2.22;;;1.98;;
14472;SDS011;7322;50.872;4.386;2023-07-28T04:35:16;2.90;;;2.00;;
14472;SDS011;7322;50.872;4.386;2023-07-28T04:37:45;3.85;;;2.20;;
14472;SDS011;7322;50.872;4.386;2023-07-28T04:40:12;3.80;;;1.92;;
14472;SDS011;7322;50.872;4.386;2023-07-28T04:42:39;2.80;;;1.95;;
14472;SDS011;7322;50.872;4.386;2023-07-28T04:45:06;2.25;;;1.90;;
14472;SDS011;7322;50.872;4.386;2023-07-28T04:47:36;4.20;;;2.40;;
14472;SDS011;7322;50.872;4.386;2023-07-28T04:50:03;4.63;;;2.25;;
14472;SDS011;7322;50.872;4.386;2023-07-28T04:52:31;4.05;;;2.40;;
14472;SDS011;7322;50.872;4.386;2023-07-28T04:54:59;5.03;;;2.65;;
14472;SDS011;7322;50.872;4.386;2023-07-28T04:57:26;3.25;;;1.95;;
14472;SDS011;7322;50.872;4.386;2023-07-28T04:59:53;4.30;;;2.03;;
14472;SDS011;7322;50.872;4.386;2023-07-28T05:02:20;5.28;;;1.83;;
14472;SDS011;7322;50.872;4.386;2023-07-28T05:04:47;4.32;;;1.85;;
14472;SDS011;7322;50.872;4.386;2023-07-28T05:07:14;4.57;;;1.90;;
14472;SDS011;7322;50.872;4.386;2023-07-28T05:09:41;2.67;;;1.73;;
14472;SDS011;7322;50.872;4.386;2023-07-28T05:12:11;2.83;;;1.80;;
14472;SDS011;7322;50.872;4.386;2023-07-28T05:14:38;4.10;;;2.15;;
14472;SDS011;7322;50.872;4.386;2023-07-28T05:17:05;11.43;;;2.35;;
14472;SDS011;7322;50.872;4.386;2023-07-28T05:19:34;5.55;;;2.20;;
14472;SDS011;7322;50.872;4.386;2023-07-28T05:22:07;5.90;;;2.30;;
14472;SDS011;7322;50.872;4.386;2023-07-28T05:24:43;9.73;;;2.40;;
14472;SDS011;7322;50.872;4.386;2023-07-28T05:27:12;4.93;;;1.95;;
14472;SDS011;7322;50.872;4.386;2023-07-28T05:29:51;4.95;;;1.75;;
14472;SDS011;7322;50.872;4.386;2023-07-28T05:32:19;4.47;;;2.00;;
14472;SDS011;7322;50.872;4.386;2023-07-28T05:37:29;6.95;;;1.92;;
14472;SDS011;7322;50.872;4.386;2023-07-28T05:40:06;5.78;;;1.60;;
14472;SDS011;7322;50.872;4.386;2023-07-28T05:42:35;2.33;;;1.73;;
14472;SDS011;7322;50.872;4.386;2023-07-28T05:45:02;3.20;;;1.70;;
14472;SDS011;7322;50.872;4.386;2023-07-28T05:50:27;3.90;;;1.77;;
14472;SDS011;7322;50.872;4.386;2023-07-28T05:52:59;5.75;;;1.65;;
14472;SDS011;7322;50.872;4.386;2023-07-28T05:55:26;5.30;;;2.10;;
14472;SDS011;7322;50.872;4.386;2023-07-28T05:57:54;3.28;;;1.77;;
14472;SDS011;7322;50.872;4.386;2023-07-28T06:00:21;3.25;;;1.27;;
14472;SDS011;7322;50.872;4.386;2023-07-28T06:02:48;2.45;;;1.58;;
14472;SDS011;7322;50.872;4.386;2023-07-28T06:05:15;4.80;;;1.88;;
14472;SDS011;7322;50.872;4.386;2023-07-28T06:07:45;2.10;;;1.50;;
14472;SDS011;7322;50.872;4.386;2023-07-28T06:10:12;3.22;;;1.52;;
14472;SDS011;7322;50.872;4.386;2023-07-28T06:12:39;3.00;;;1.45;;
14472;SDS011;7322;50.872;4.386;2023-07-28T06:15:11;3.80;;;1.60;;
14472;SDS011;7322;50.872;4.386;2023-07-28T06:17:41;4.18;;;1.88;;
14472;SDS011;7322;50.872;4.386;2023-07-28T06:20:08;2.42;;;1.30;;
14472;SDS011;7322;50.872;4.386;2023-07-28T06:22:36;3.22;;;1.48;;
14472;SDS011;7322;50.872;4.386;2023-07-28T06:25:03;3.22;;;1.60;;
14472;SDS011;7322;50.872;4.386;2023-07-28T06:27:30;2.35;;;1.48;;
14472;SDS011;7322;50.872;4.386;2023-07-28T06:35:31;4.22;;;1.58;;
14472;SDS011;7322;50.872;4.386;2023-07-28T06:37:59;2.50;;;1.58;;
14472;SDS011;7322;50.872;4.386;2023-07-28T06:40:26;3.00;;;1.40;;
14472;SDS011;7322;50.872;4.386;2023-07-28T06:42:53;1.58;;;1.20;;
14472;SDS011;7322;50.872;4.386;2023-07-28T06:45:22;3.25;;;1.50;;
14472;SDS011;7322;50.872;4.386;2023-07-28T06:47:49;3.53;;;1.20;;
14472;SDS011;7322;50.872;4.386;2023-07-28T06:50:16;1.42;;;1.08;;
14472;SDS011;7322;50.872;4.386;2023-07-28T06:52:43;2.67;;;1.50;;
14472;SDS011;7322;50.872;4.386;2023-07-28T06:55:11;2.58;;;1.10;;
14472;SDS011;7322;50.872;4.386;2023-07-28T06:57:38;3.63;;;1.10;;
14472;SDS011;7322;50.872;4.386;2023-07-28T07:00:06;2.55;;;1.20;;
14472;SDS011;7322;50.872;4.386;2023-07-28T07:02:36;1.30;;;1.20;;
14472;SDS011;7322;50.872;4.386;2023-07-28T07:05:03;1.33;;;1.15;;
14472;SDS011;7322;50.872;4.386;2023-07-28T07:07:31;2.40;;;0.90;;
14472;SDS011;7322;50.872;4.386;2023-07-28T07:09:59;1.23;;;1.10;;
14472;SDS011;7322;50.872;4.386;2023-07-28T07:12:26;2.28;;;1.05;;
14472;SDS011;7322;50.872;4.386;2023-07-28T07:14:53;1.45;;;0.93;;
14472;SDS011;7322;50.872;4.386;2023-07-28T07:17:20;0.82;;;0.70;;
14472;SDS011;7322;50.872;4.386;2023-07-28T07:19:49;1.70;;;1.00;;
14472;SDS011;7322;50.872;4.386;2023-07-28T07:22:16;1.23;;;0.93;;
14472;SDS011;7322;50.872;4.386;2023-07-28T07:24:43;1.30;;;1.00;;
14472;SDS011;7322;50.872;4.386;2023-07-28T07:27:11;1.10;;;0.93;;
14472;SDS011;7322;50.872;4.386;2023-07-28T07:29:38;1.20;;;0.90;;
14472;SDS011;7322;50.872;4.386;2023-07-28T07:32:05;0.95;;;0.80;;
14472;SDS011;7322;50.872;4.386;2023-07-28T07:34:35;3.38;;;1.02;;
14472;SDS011;7322;50.872;4.386;2023-07-28T07:37:04;1.60;;;0.93;;
14472;SDS011;7322;50.872;4.386;2023-07-28T07:39:33;1.33;;;0.90;;
14472;SDS011;7322;50.872;4.386;2023-07-28T07:42:01;2.45;;;1.00;;
14472;SDS011;7322;50.872;4.386;2023-07-28T07:44:28;1.30;;;0.90;;
14472;SDS011;7322;50.872;4.386;2023-07-28T07:46:55;0.80;;;0.80;;
14472;SDS011;7322;50.872;4.386;2023-07-28T07:49:26;0.82;;;0.82;;
14472;SDS011;7322;50.872;4.386;2023-07-28T07:51:53;2.42;;;0.90;;
14472;SDS011;7322;50.872;4.386;2023-07-28T07:54:21;1.27;;;1.13;;
14472;SDS011;7322;50.872;4.386;2023-07-28T07:56:48;0.80;;;0.80;;
14472;SDS011;7322;50.872;4.386;2023-07-28T07:59:16;2.38;;;1.13;;
14472;SDS011;7322;50.872;4.386;2023-07-28T08:01:43;2.10;;;0.85;;
14472;SDS011;7322;50.872;4.386;2023-07-28T08:04:10;2.25;;;0.93;;
14472;SDS011;7322;50.872;4.386;2023-07-28T08:06:37;2.33;;;0.85;;
14472;SDS011;7322;50.872;4.386;2023-07-28T08:09:05;0.80;;;0.80;;
14472;SDS011;7322;50.872;4.386;2023-07-28T08:11:34;4.03;;;1.33;;
14472;SDS011;7322;50.872;4.386;2023-07-28T08:14:01;1.35;;;1.10;;
14472;SDS011;7322;50.872;4.386;2023-07-28T08:16:28;1.30;;;1.17;;
14472;SDS011;7322;50.872;4.386;2023-07-28T08:18:55;1.90;;;1.20;;
14472;SDS011;7322;50.872;4.386;2023-07-28T08:21:22;1.05;;;1.05;;
14472;SDS011;7322;50.872;4.386;2023-07-28T08:23:49;1.17;;;1.08;;
14472;SDS011;7322;50.872;4.386;2023-07-28T08:26:16;1.73;;;1.30;;
14472;SDS011;7322;50.872;4.386;2023-07-28T08:28:45;2.47;;;1.30;;
14472;SDS011;7322;50.872;4.386;2023-07-28T08:31:12;1.35;;;1.25;;
14472;SDS011;7322;50.872;4.386;2023-07-28T08:33:39;1.58;;;1.42;;
14472;SDS011;7322;50.872;4.386;2023-07-28T08:36:06;2.13;;;1.45;;
14472;SDS011;7322;50.872;4.386;2023-07-28T08:38:33;2.88;;;1.50;;
14472;SDS011;7322;50.872;4.386;2023-07-28T08:41:00;1.10;;;1.00;;
14472;SDS011;7322;50.872;4.386;2023-07-28T08:43:27;1.77;;;1.20;;
14472;SDS011;7322;50.872;4.386;2023-07-28T08:45:56;1.65;;;1.30;;
14472;SDS011;7322;50.872;4.386;2023-07-28T08:48:23;4.70;;;1.15;;
14472;SDS011;7322;50.872;4.386;2023-07-28T08:50:50;2.97;;;1.30;;
14472;SDS011;7322;50.872;4.386;2023-07-28T08:53:18;1.38;;;1.25;;
14472;SDS011;7322;50.872;4.386;2023-07-28T08:55:45;1.77;;;1.38;;
14472;SDS011;7322;50.872;4.386;2023-07-28T08:58:14;2.13;;;1.00;;
14472;SDS011;7322;50.872;4.386;2023-07-28T09:00:41;1.75;;;1.25;;
14472;SDS011;7322;50.872;4.386;2023-07-28T09:03:10;1.73;;;1.20;;
14472;SDS011;7322;50.872;4.386;2023-07-28T09:05:37;2.63;;;1.25;;
14472;SDS011;7322;50.872;4.386;2023-07-28T09:08:08;2.08;;;1.45;;
14472;SDS011;7322;50.872;4.386;2023-07-28T09:10:42;2.13;;;1.15;;
14472;SDS011;7322;50.872;4.386;2023-07-28T09:13:10;1.33;;;1.10;;
14472;SDS011;7322;50.872;4.386;2023-07-28T09:15:38;2.05;;;1.23;;
14472;SDS011;7322;50.872;4.386;2023-07-28T09:18:08;3.45;;;1.25;;
14472;SDS011;7322;50.872;4.386;2023-07-28T09:20:37;1.90;;;1.00;;
14472;SDS011;7322;50.872;4.386;2023-07-28T09:23:06;2.03;;;1.20;;
14472;SDS011;7322;50.872;4.386;2023-07-28T09:25:34;1.15;;;1.00;;
14472;SDS011;7322;50.872;4.386;2023-07-28T09:28:03;1.30;;;1.17;;
14472;SDS011;7322;50.872;4.386;2023-07-28T09:30:43;2.05;;;0.95;;
14472;SDS011;7322;50.872;4.386;2023-07-28T09:33:11;1.27;;;1.10;;
14472;SDS011;7322;50.872;4.386;2023-07-28T09:35:48;1.42;;;1.08;;
14472;SDS011;7322;50.872;4.386;2023-07-28T09:38:16;1.15;;;0.98;;
14472;SDS011;7322;50.872;4.386;2023-07-28T09:40:44;1.40;;;1.00;;
14472;SDS011;7322;50.872;4.386;2023-07-28T09:43:14;4.20;;;1.05;;
14472;SDS011;7322;50.872;4.386;2023-07-28T09:45:42;0.73;;;0.73;;
14472;SDS011;7322;50.872;4.386;2023-07-28T09:48:10;1.67;;;0.90;;
14472;SDS011;7322;50.872;4.386;2023-07-28T09:50:39;2.22;;;0.90;;
14472;SDS011;7322;50.872;4.386;2023-07-28T09:53:09;1.13;;;1.00;;
14472;SDS011;7322;50.872;4.386;2023-07-28T09:55:38;1.15;;;0.95;;
14472;SDS011;7322;50.872;4.386;2023-07-28T09:58:09;4.53;;;1.10;;
14472;SDS011;7322;50.872;4.386;2023-07-28T10:03:31;2.25;;;1.40;;
14472;SDS011;7322;50.872;4.386;2023-07-28T10:06:05;5.22;;;1.67;;
14472;SDS011;7322;50.872;4.386;2023-07-28T10:08:34;1.40;;;1.30;;
14472;SDS011;7322;50.872;4.386;2023-07-28T10:11:02;3.45;;;1.70;;
14472;SDS011;7322;50.872;4.386;2023-07-28T10:13:35;4.35;;;1.83;;
14472;SDS011;7322;50.872;4.386;2023-07-28T10:16:06;2.83;;;2.00;;
14472;SDS011;7322;50.872;4.386;2023-07-28T10:18:34;3.13;;;2.10;;
14472;SDS011;7322;50.872;4.386;2023-07-28T10:21:04;2.35;;;1.83;;
14472;SDS011;7322;50.872;4.386;2023-07-28T10:23:34;3.53;;;2.03;;
14472;SDS011;7322;50.872;4.386;2023-07-28T10:26:04;3.78;;;1.98;;
14472;SDS011;7322;50.872;4.386;2023-07-28T10:28:32;2.20;;;2.00;;
14472;SDS011;7322;50.872;4.386;2023-07-28T10:31:04;2.17;;;1.60;;
14472;SDS011;7322;50.872;4.386;2023-07-28T10:33:33;1.73;;;1.60;;
14472;SDS011;7322;50.872;4.386;2023-07-28T10:36:14;1.88;;;1.67;;
14472;SDS011;7322;50.872;4.386;2023-07-28T10:38:43;1.40;;;1.20;;
14472;SDS011;7322;50.872;4.386;2023-07-28T10:41:12;2.22;;;1.40;;
14472;SDS011;7322;50.872;4.386;2023-07-28T10:43:40;3.13;;;1.30;;
14472;SDS011;7322;50.872;4.386;2023-07-28T10:46:08;3.25;;;1.55;;
14472;SDS011;7322;50.872;4.386;2023-07-28T10:48:41;1.35;;;1.20;;
14472;SDS011;7322;50.872;4.386;2023-07-28T10:51:09;3.25;;;1.45;;
14472;SDS011;7322;50.872;4.386;2023-07-28T10:53:38;2.17;;;1.30;;
14472;SDS011;7322;50.872;4.386;2023-07-28T10:56:06;1.55;;;1.40;;
14472;SDS011;7322;50.872;4.386;2023-07-28T10:58:37;3.00;;;1.85;;
14472;SDS011;7322;50.872;4.386;2023-07-28T11:01:06;3.03;;;2.00;;
14472;SDS011;7322;50.872;4.386;2023-07-28T11:03:33;2.03;;;1.60;;
14472;SDS011;7322;50.872;4.386;2023-07-28T11:06:00;2.05;;;1.85;;
14472;SDS011;7322;50.872;4.386;2023-07-28T11:08:29;2.95;;;1.63;;
14472;SDS011;7322;50.872;4.386;2023-07-28T11:10:56;2.78;;;2.25;;
14472;SDS011;7322;50.872;4.386;2023-07-28T11:13:40;3.17;;;2.97;;
14472;SDS011;7322;50.872;4.386;2023-07-28T11:16:07;3.65;;;3.17;;
14472;SDS011;7322;50.872;4.386;2023-07-28T11:18:37;5.25;;;3.05;;
14472;SDS011;7322;50.872;4.386;2023-07-28T11:21:17;3.42;;;2.97;;
14472;SDS011;7322;50.872;4.386;2023-07-28T11:23:44;4.10;;;3.30;;
14472;SDS011;7322;50.872;4.386;2023-07-28T11:26:13;3.88;;;3.40;;
14472;SDS011;7322;50.872;4.386;2023-07-28T11:28:49;3.55;;;3.25;;
14472;SDS011;7322;50.872;4.386;2023-07-28T11:31:22;3.63;;;3.33;;
14472;SDS011;7322;50.872;4.386;2023-07-28T11:33:55;4.63;;;3.50;;
14472;SDS011;7322;50.872;4.386;2023-07-28T11:36:35;4.47;;;3.35;;
14472;SDS011;7322;50.872;4.386;2023-07-28T11:42:04;2.95;;;2.38;;
14472;SDS011;7322;50.872;4.386;2023-07-28T11:44:40;3.90;;;2.88;;
14472;SDS011;7322;50.872;4.386;2023-07-28T11:47:16;4.07;;;2.70;;
14472;SDS011;7322;50.872;4.386;2023-07-28T11:49:46;3.08;;;2.80;;
14472;SDS011;7322;50.872;4.386;2023-07-28T11:52:20;2.72;;;2.53;;
14472;SDS011;7322;50.872;4.386;2023-07-28T11:55:05;4.45;;;2.50;;
14472;SDS011;7322;50.872;4.386;2023-07-28T11:57:40;2.83;;;2.58;;
14472;SDS011;7322;50.872;4.386;2023-07-28T12:03:05;2.95;;;2.20;;
14472;SDS011;7322;50.872;4.386;2023-07-28T12:05:34;3.00;;;2.20;;
14472;SDS011;7322;50.872;4.386;2023-07-28T12:08:03;2.83;;;1.77;;
14472;SDS011;7322;50.872;4.386;2023-07-28T12:10:53;3.28;;;2.10;;
14472;SDS011;7322;50.872;4.386;2023-07-28T12:13:32;3.17;;;1.95;;
14472;SDS011;7322;50.872;4.386;2023-07-28T12:16:00;2.05;;;1.90;;
14472;SDS011;7322;50.872;4.386;2023-07-28T12:23:55;2.35;;;1.83;;
14472;SDS011;7322;50.872;4.386;2023-07-28T12:31:41;2.67;;;1.70;;
14472;SDS011;7322;50.872;4.386;2023-07-28T12:40:10;3.22;;;1.40;;
14472;SDS011;7322;50.872;4.386;2023-07-28T12:42:42;2.63;;;1.60;;
14472;SDS011;7322;50.872;4.386;2023-07-28T12:45:09;3.55;;;1.80;;
14472;SDS011;7322;50.872;4.386;2023-07-28T12:47:40;1.98;;;1.80;;
14472;SDS011;7322;50.872;4.386;2023-07-28T12:50:13;2.28;;;1.70;;
14472;SDS011;7322;50.872;4.386;2023-07-28T12:55:25;3.17;;;1.65;;
14472;SDS011;7322;50.872;4.386;2023-07-28T12:57:52;2.80;;;1.90;;
14472;SDS011;7322;50.872;4.386;2023-07-28T13:00:20;3.38;;;1.52;;
14472;SDS011;7322;50.872;4.386;2023-07-28T13:02:48;2.55;;;1.67;;
14472;SDS011;7322;50.872;4.386;2023-07-28T13:05:15;4.53;;;1.90;;
14472;SDS011;7322;50.872;4.386;2023-07-28T13:07:42;1.75;;;1.58;;
14472;SDS011;7322;50.872;4.386;2023-07-28T13:10:10;2.65;;;1.60;;
14472;SDS011;7322;50.872;4.386;2023-07-28T13:12:37;2.85;;;1.80;;
14472;SDS011;7322;50.872;4.386;2023-07-28T13:15:05;3.72;;;1.80;;
14472;SDS011;7322;50.872;4.386;2023-07-28T13:17:33;1.88;;;1.58;;
14472;SDS011;7322;50.872;4.386;2023-07-28T13:20:01;3.95;;;1.80;;
14472;SDS011;7322;50.872;4.386;2023-07-28T13:22:28;3.85;;;1.70;;
14472;SDS011;7322;50.872;4.386;2023-07-28T13:24:55;1.60;;;1.50;;
14472;SDS011;7322;50.872;4.386;2023-07-28T13:27:22;2.65;;;1.55;;
14472;SDS011;7322;50.872;4.386;2023-07-28T13:29:49;3.20;;;1.50;;
14472;SDS011;7322;50.872;4.386;2023-07-28T13:32:17;1.60;;;1.50;;
14472;SDS011;7322;50.872;4.386;2023-07-28T13:34:48;1.70;;;1.60;;
14472;SDS011;7322;50.872;4.386;2023-07-28T13:37:17;3.28;;;1.77;;
14472;SDS011;7322;50.872;4.386;2023-07-28T13:39:44;2.10;;;1.50;;
14472;SDS011;7322;50.872;4.386;2023-07-28T13:42:11;2.17;;;1.63;;
14472;SDS011;7322;50.872;4.386;2023-07-28T13:44:40;2.40;;;1.48;;
14472;SDS011;7322;50.872;4.386;2023-07-28T13:47:08;2.78;;;1.48;;
14472;SDS011;7322;50.872;4.386;2023-07-28T13:49:35;3.45;;;1.55;;
14472;SDS011;7322;50.872;4.386;2023-07-28T13:52:02;2.53;;;1.60;;
14472;SDS011;7322;50.872;4.386;2023-07-28T13:54:31;3.25;;;1.88;;
14472;SDS011;7322;50.872;4.386;2023-07-28T13:56:58;3.28;;;1.55;;
14472;SDS011;7322;50.872;4.386;2023-07-28T13:59:25;2.92;;;1.48;;
14472;SDS011;7322;50.872;4.386;2023-07-28T14:01:52;2.90;;;1.77;;
14472;SDS011;7322;50.872;4.386;2023-07-28T14:04:20;1.83;;;1.50;;
14472;SDS011;7322;50.872;4.386;2023-07-28T14:06:47;2.53;;;1.60;;
14472;SDS011;7322;50.872;4.386;2023-07-28T14:09:22;2.92;;;1.73;;
14472;SDS011;7322;50.872;4.386;2023-07-28T14:14:27;2.53;;;1.40;;
14472;SDS011;7322;50.872;4.386;2023-07-28T14:19:49;2.92;;;1.67;;
14472;SDS011;7322;50.872;4.386;2023-07-28T14:22:23;1.40;;;1.30;;
14472;SDS011;7322;50.872;4.386;2023-07-28T14:24:56;1.95;;;1.60;;
14472;SDS011;7322;50.872;4.386;2023-07-28T14:27:25;3.05;;;1.55;;
14472;SDS011;7322;50.872;4.386;2023-07-28T14:29:53;1.48;;;1.38;;
14472;SDS011;7322;50.872;4.386;2023-07-28T14:32:21;3.22;;;1.58;;
14472;SDS011;7322;50.872;4.386;2023-07-28T14:34:49;2.38;;;1.55;;
14472;SDS011;7322;50.872;4.386;2023-07-28T14:37:16;1.65;;;1.45;;
14472;SDS011;7322;50.872;4.386;2023-07-28T14:39:44;2.67;;;1.60;;
14472;SDS011;7322;50.872;4.386;2023-07-28T14:42:16;2.00;;;1.52;;
14472;SDS011;7322;50.872;4.386;2023-07-28T14:44:44;4.75;;;2.72;;
14472;SDS011;7322;50.872;4.386;2023-07-28T14:47:14;4.80;;;2.60;;
14472;SDS011;7322;50.872;4.386;2023-07-28T14:49:42;7.45;;;2.60;;
14472;SDS011;7322;50.872;4.386;2023-07-28T14:52:11;3.25;;;2.15;;
14472;SDS011;7322;50.872;4.386;2023-07-28T14:54:40;4.05;;;2.20;;
14472;SDS011;7322;50.872;4.386;2023-07-28T14:57:08;3.92;;;1.80;;
14472;SDS011;7322;50.872;4.386;2023-07-28T14:59:48;4.20;;;1.85;;
14472;SDS011;7322;50.872;4.386;2023-07-28T15:02:19;4.63;;;2.00;;
14472;SDS011;7322;50.872;4.386;2023-07-28T15:04:52;7.70;;;2.28;;
14472;SDS011;7322;50.872;4.386;2023-07-28T15:09:57;3.45;;;1.80;;
14472;SDS011;7322;50.872;4.386;2023-07-28T15:12:27;4.90;;;2.25;;
14472;SDS011;7322;50.872;4.386;2023-07-28T15:14:59;6.18;;;2.60;;
14472;SDS011;7322;50.872;4.386;2023-07-28T15:17:33;3.83;;;2.33;;
14472;SDS011;7322;50.872;4.386;2023-07-28T15:20:01;7.53;;;3.22;;
14472;SDS011;7322;50.872;4.386;2023-07-28T15:22:29;7.30;;;2.97;;
14472;SDS011;7322;50.872;4.386;2023-07-28T15:27:53;2.70;;;2.00;;
14472;SDS011;7322;50.872;4.386;2023-07-28T15:30:28;3.47;;;2.22;;
14472;SDS011;7322;50.872;4.386;2023-07-28T15:36:00;5.00;;;2.40;;
14472;SDS011;7322;50.872;4.386;2023-07-28T15:38:27;4.40;;;2.67;;
14472;SDS011;7322;50.872;4.386;2023-07-28T15:41:04;4.00;;;2.50;;
14472;SDS011;7322;50.872;4.386;2023-07-28T15:43:33;4.10;;;2.38;;
14472;SDS011;7322;50.872;4.386;2023-07-28T15:48:57;3.45;;;2.53;;
14472;SDS011;7322;50.872;4.386;2023-07-28T15:51:27;6.10;;;2.70;;
14472;SDS011;7322;50.872;4.386;2023-07-28T15:54:06;5.00;;;3.45;;
14472;SDS011;7322;50.872;4.386;2023-07-28T15:56:44;7.50;;;4.32;;
14472;SDS011;7322;50.872;4.386;2023-07-28T16:13:50;5.30;;;3.53;;
14472;SDS011;7322;50.872;4.386;2023-07-28T16:16:19;6.95;;;4.15;;
14472;SDS011;7322;50.872;4.386;2023-07-28T16:18:58;7.03;;;4.75;;
14472;SDS011;7322;50.872;4.386;2023-07-28T16:21:42;7.53;;;3.70;;
14472;SDS011;7322;50.872;4.386;2023-07-28T16:24:10;6.20;;;4.13;;
14472;SDS011;7322;50.872;4.386;2023-07-28T16:26:42;5.45;;;4.13;;
14472;SDS011;7322;50.872;4.386;2023-07-28T16:29:22;5.40;;;3.90;;
14472;SDS011;7322;50.872;4.386;2023-07-28T16:32:04;6.10;;;4.38;;
14472;SDS011;7322;50.872;4.386;2023-07-28T16:34:33;5.57;;;4.03;;
14472;SDS011;7322;50.872;4.386;2023-07-28T16:37:02;5.85;;;3.70;;